Time;durP1;ratioP1;P1;durP2;ratioP2;P2;SDS_P1;SDS_P2;PMS_P1;PMS_P2;Temp;Humidity;BMP_temperature;BMP_pressure;BME280_temperature;BME280_humidity;BME280_pressure;Samples;Min_cycle;Max_cycle;Signal;HPM_P1;HPM_P2
2023/12/28 00:00:27;;;;;;;19.02;9.45;;;;;;;;;;4805816;29;20410;-81
2023/12/28 00:02:53;;;;;;;15.50;6.35;;;;;;;;;;4805098;29;20413;-81
2023/12/28 00:05:19;;;;;;;14.23;5.43;;;;;;;;;;4805688;29;20043;-81
2023/12/28 00:07:45;;;;;;;7.03;3.92;;;;;;;;;;4805061;29;20045;-81
2023/12/28 00:10:11;;;;;;;7.30;4.35;;;;;;;;;;4805443;29;20046;-81
2023/12/28 00:12:37;;;;;;;11.25;5.18;;;;;;;;;;4788670;29;20066;-81
2023/12/28 00:15:03;;;;;;;27.73;14.40;;;;;;;;;;4803762;29;20440;-81
2023/12/28 00:17:29;;;;;;;24.70;9.32;;;;;;;;;;4805119;29;20470;-81
2023/12/28 00:19:55;;;;;;;15.35;5.63;;;;;;;;;;4788337;29;20062;-81
2023/12/28 00:22:21;;;;;;;11.30;4.97;;;;;;;;;;4804224;29;20039;-81
2023/12/28 00:24:47;;;;;;;9.82;4.45;;;;;;;;;;4788706;29;20502;-81
2023/12/28 00:27:13;;;;;;;17.73;6.25;;;;;;;;;;4797957;29;20071;-82
2023/12/28 00:29:41;;;;;;;17.45;6.35;;;;;;;;;;4792305;29;20543;-81
2023/12/28 00:32:07;;;;;;;14.60;7.28;;;;;;;;;;4792662;29;20049;-81
2023/12/28 00:34:33;;;;;;;12.20;5.75;;;;;;;;;;4792364;29;20392;-81
2023/12/28 00:36:59;;;;;;;11.23;4.07;;;;;;;;;;4798736;29;20383;-81
2023/12/28 00:39:25;;;;;;;7.13;2.72;;;;;;;;;;4808499;29;20039;-81
2023/12/28 00:41:51;;;;;;;;;;;;;;;;;;4811997;29;20050;-81
2023/12/28 00:44:17;;;;;;;8.52;3.20;;;;;;;;;;4808643;29;19909;-81
2023/12/28 00:46:43;;;;;;;5.95;2.92;;;;;;;;;;4806795;29;20440;-81
2023/12/28 00:49:09;;;;;;;2.25;1.42;;;;;;;;;;4792478;29;20126;-81
2023/12/28 00:51:35;;;;;;;4.07;2.50;;;;;;;;;;4807096;29;20046;-81
2023/12/28 00:54:01;;;;;;;;;;;;;;;;;;4785194;30;20410;-81
2023/12/28 00:56:27;;;;;;;6.40;2.47;;;;;;;;;;4794422;29;19917;-82
2023/12/28 00:58:53;;;;;;;8.18;2.95;;;;;;;;;;4777932;30;20077;-81
2023/12/28 01:01:19;;;;;;;5.90;2.88;;;;;;;;;;4790931;29;20043;-81
2023/12/28 01:03:45;;;;;;;5.32;2.67;;;;;;;;;;4805745;29;20064;-81
2023/12/28 01:06:11;;;;;;;7.47;3.03;;;;;;;;;;4808271;29;20059;-81
2023/12/28 01:08:40;;;;;;;6.35;2.67;;;;;;;;;;4807025;29;20118;-81
2023/12/28 01:11:06;;;;;;;3.40;2.03;;;;;;;;;;4791764;29;20054;-81
2023/12/28 01:13:32;;;;;;;3.85;1.85;;;;;;;;;;4791409;29;20050;-81
2023/12/28 01:15:58;;;;;;;5.40;2.80;;;;;;;;;;4805118;29;20097;-81
2023/12/28 01:18:25;;;;;;;7.22;2.20;;;;;;;;;;4804372;29;20072;-81
2023/12/28 01:20:51;;;;;;;10.30;2.97;;;;;;;;;;4803456;29;20055;-81
2023/12/28 01:23:17;;;;;;;7.75;2.28;;;;;;;;;;4803422;29;20051;-81
2023/12/28 01:25:43;;;;;;;13.20;3.55;;;;;;;;;;4789051;30;20052;-81
2023/12/28 01:28:09;;;;;;;16.73;2.85;;;;;;;;;;4789963;30;20084;-81
2023/12/28 01:30:35;;;;;;;10.38;3.35;;;;;;;;;;4789526;30;20062;-82
2023/12/28 01:33:01;;;;;;;8.65;3.20;;;;;;;;;;4773612;30;20129;-81
2023/12/28 01:35:27;;;;;;;6.97;3.60;;;;;;;;;;4773269;30;20881;-81
2023/12/28 01:37:53;;;;;;;19.30;2.83;;;;;;;;;;4784642;29;20047;-81
2023/12/28 01:40:19;;;;;;;7.28;3.67;;;;;;;;;;4789205;30;20039;-81
2023/12/28 01:42:45;;;;;;;;;;;;;;;;;;4774284;30;20727;-81
2023/12/28 01:45:13;;;;;;;7.22;1.73;;;;;;;;;;4789975;30;19918;-81
2023/12/28 01:47:40;;;;;;;6.35;2.13;;;;;;;;;;4789441;30;20039;-81
2023/12/28 01:50:06;;;;;;;6.93;3.55;;;;;;;;;;4776797;30;20150;-81
2023/12/28 01:52:32;;;;;;;6.05;3.40;;;;;;;;;;4768187;30;20061;-81
2023/12/28 01:54:59;;;;;;;2.72;1.42;;;;;;;;;;4789987;30;20073;-81
2023/12/28 01:57:25;;;;;;;4.65;2.85;;;;;;;;;;4773420;30;20496;-81
2023/12/28 01:59:51;;;;;;;7.30;3.63;;;;;;;;;;4773659;30;20047;-81
2023/12/28 02:02:17;;;;;;;6.30;2.45;;;;;;;;;;4773381;30;20122;-81
2023/12/28 02:04:44;;;;;;;4.45;2.55;;;;;;;;;;4773707;30;20047;-81
2023/12/28 02:07:11;;;;;;;14.00;2.88;;;;;;;;;;4773007;30;20077;-81
2023/12/28 02:09:37;;;;;;;5.35;1.75;;;;;;;;;;4789578;30;20048;-82
2023/12/28 02:12:03;;;;;;;12.88;3.92;;;;;;;;;;4769006;30;20078;-81
2023/12/28 02:14:30;;;;;;;8.07;2.17;;;;;;;;;;4787139;30;20036;-81
2023/12/28 02:17:04;;;;;;;3.28;1.65;;;;;;;;;;4797964;29;20050;-81
2023/12/28 02:19:36;;;;;;;5.05;1.70;;;;;;;;;;4788906;30;20059;-81
2023/12/28 02:22:03;;;;;;;13.48;1.45;;;;;;;;;;4789447;30;20050;-81
2023/12/28 02:24:29;;;;;;;7.97;2.90;;;;;;;;;;4786720;29;20179;-81
2023/12/28 02:26:55;;;;;;;6.53;2.15;;;;;;;;;;4806710;29;20481;-81
2023/12/28 02:29:21;;;;;;;4.40;1.27;;;;;;;;;;4790697;29;20043;-81
2023/12/28 02:31:50;;;;;;;5.93;1.63;;;;;;;;;;4806378;29;20088;-81
2023/12/28 02:34:20;;;;;;;7.35;1.50;;;;;;;;;;4790353;29;20051;-81
2023/12/28 02:36:46;;;;;;;3.35;1.52;;;;;;;;;;4792835;29;20039;-81
2023/12/28 02:39:13;;;;;;;5.20;2.13;;;;;;;;;;4806611;29;20043;-81
2023/12/28 02:41:39;;;;;;;6.72;1.48;;;;;;;;;;4796677;29;20138;-81
2023/12/28 02:44:05;;;;;;;1.40;0.70;;;;;;;;;;4806222;29;20047;-81
2023/12/28 02:46:31;;;;;;;1.35;0.98;;;;;;;;;;4812086;29;20458;-81
2023/12/28 02:48:59;;;;;;;5.15;1.88;;;;;;;;;;4806067;29;20088;-81
2023/12/28 02:51:25;;;;;;;9.30;2.35;;;;;;;;;;4789752;29;20130;-81
2023/12/28 02:53:51;;;;;;;5.25;2.20;;;;;;;;;;4806136;29;20126;-81
2023/12/28 02:56:17;;;;;;;4.30;1.52;;;;;;;;;;4820475;29;20054;-81
2023/12/28 02:58:43;;;;;;;4.90;1.35;;;;;;;;;;4789952;29;20458;-81
2023/12/28 03:01:09;;;;;;;3.03;1.85;;;;;;;;;;4806406;29;20097;-81
2023/12/28 03:03:35;;;;;;;1.95;1.10;;;;;;;;;;4805829;29;20074;-81
2023/12/28 03:06:01;;;;;;;4.68;1.30;;;;;;;;;;4797547;29;20378;-81
2023/12/28 03:08:27;;;;;;;4.15;1.58;;;;;;;;;;4788241;29;20087;-81
2023/12/28 03:10:55;;;;;;;2.83;1.45;;;;;;;;;;4821734;29;20046;-81
2023/12/28 03:13:21;;;;;;;3.80;2.28;;;;;;;;;;4805955;29;20390;-81
2023/12/28 03:15:47;;;;;;;3.22;1.92;;;;;;;;;;4806075;29;20053;-81
2023/12/28 03:18:13;;;;;;;5.55;1.13;;;;;;;;;;4805887;29;20041;-81
2023/12/28 03:20:39;;;;;;;14.63;2.92;;;;;;;;;;4794482;29;20126;-81
2023/12/28 03:23:05;;;;;;;1.60;0.68;;;;;;;;;;4802717;29;20057;-81
2023/12/28 03:25:31;;;;;;;6.65;2.63;;;;;;;;;;4805856;29;20050;-81
2023/12/28 03:27:57;;;;;;;8.65;1.42;;;;;;;;;;4806579;29;20031;-81
2023/12/28 03:30:23;;;;;;;2.05;1.20;;;;;;;;;;4806241;29;20066;-81
2023/12/28 03:32:49;;;;;;;1.77;0.88;;;;;;;;;;4805838;29;20067;-81
2023/12/28 03:35:15;;;;;;;2.00;1.08;;;;;;;;;;4790072;29;20055;-81
2023/12/28 03:37:41;;;;;;;3.72;0.68;;;;;;;;;;4806402;29;20049;-82
2023/12/28 03:40:07;;;;;;;1.73;0.95;;;;;;;;;;4790297;29;20129;-81
2023/12/28 03:42:33;;;;;;;2.85;1.30;;;;;;;;;;4789623;29;20038;-82
2023/12/28 03:44:59;;;;;;;8.07;1.42;;;;;;;;;;4805448;29;20071;-82
2023/12/28 03:47:25;;;;;;;1.85;0.98;;;;;;;;;;4805251;29;20042;-82
2023/12/28 03:49:51;;;;;;;2.80;1.38;;;;;;;;;;4805970;29;20588;-82
2023/12/28 03:52:17;;;;;;;2.30;1.17;;;;;;;;;;4799619;29;20130;-82
2023/12/28 03:54:43;;;;;;;1.85;0.60;;;;;;;;;;4805937;29;20129;-81
2023/12/28 03:57:10;;;;;;;2.88;1.30;;;;;;;;;;4805404;29;20039;-81
2023/12/28 03:59:36;;;;;;;2.15;1.13;;;;;;;;;;4798068;29;20651;-81
2023/12/28 04:02:02;;;;;;;1.88;1.05;;;;;;;;;;4805552;29;20039;-81
2023/12/28 04:04:28;;;;;;;2.38;0.43;;;;;;;;;;4809417;29;20104;-81
2023/12/28 04:06:54;;;;;;;2.70;1.63;;;;;;;;;;4792765;29;20098;-81
2023/12/28 04:09:20;;;;;;;2.25;0.90;;;;;;;;;;4809320;29;20126;-81
2023/12/28 04:11:47;;;;;;;4.63;1.45;;;;;;;;;;4809195;29;20777;-82
2023/12/28 04:14:13;;;;;;;4.10;1.27;;;;;;;;;;4809444;29;20130;-81
2023/12/28 04:16:39;;;;;;;1.83;0.90;;;;;;;;;;4808644;29;20112;-81
2023/12/28 04:19:05;;;;;;;0.63;0.47;;;;;;;;;;4809658;29;20466;-81
2023/12/28 04:21:31;;;;;;;6.20;2.20;;;;;;;;;;4793176;29;20134;-81
2023/12/28 04:23:57;;;;;;;1.67;0.85;;;;;;;;;;4792817;29;20059;-81
2023/12/28 04:26:23;;;;;;;2.67;1.25;;;;;;;;;;4806384;29;20081;-81
2023/12/28 04:28:49;;;;;;;2.60;1.17;;;;;;;;;;4809169;29;20884;-81
2023/12/28 04:31:15;;;;;;;1.95;0.43;;;;;;;;;;4808014;29;20051;-81
2023/12/28 04:33:41;;;;;;;2.17;0.88;;;;;;;;;;4809046;29;20035;-81
2023/12/28 04:36:07;;;;;;;5.18;1.60;;;;;;;;;;4809266;29;20051;-81
2023/12/28 04:38:34;;;;;;;5.53;1.42;;;;;;;;;;4809191;29;20046;-81
2023/12/28 04:41:00;;;;;;;2.75;0.98;;;;;;;;;;4808868;29;20737;-81
2023/12/28 04:43:26;;;;;;;3.75;1.77;;;;;;;;;;4799145;29;20031;-81
2023/12/28 04:45:52;;;;;;;2.78;1.55;;;;;;;;;;4808554;29;20121;-81
2023/12/28 04:48:23;;;;;;;2.53;0.63;;;;;;;;;;4809015;29;20046;-81
2023/12/28 04:50:49;;;;;;;4.57;1.77;;;;;;;;;;4789796;29;20055;-81
2023/12/28 04:53:16;;;;;;;1.80;1.15;;;;;;;;;;4783908;30;20050;-81
2023/12/28 04:55:42;;;;;;;2.60;1.38;;;;;;;;;;4807806;29;20470;-81
2023/12/28 04:58:08;;;;;;;2.75;1.40;;;;;;;;;;4797192;29;20478;-81
2023/12/28 05:00:34;;;;;;;5.60;1.35;;;;;;;;;;4807955;29;20124;-81
2023/12/28 05:03:00;;;;;;;1.92;0.90;;;;;;;;;;4805175;29;20432;-81
2023/12/28 05:05:26;;;;;;;4.03;1.45;;;;;;;;;;4785260;29;20134;-81
2023/12/28 05:07:52;;;;;;;2.97;1.80;;;;;;;;;;4808185;29;20109;-81
2023/12/28 05:10:18;;;;;;;1.67;1.33;;;;;;;;;;4791800;29;20206;-81
2023/12/28 05:12:44;;;;;;;2.00;1.13;;;;;;;;;;4807395;29;20122;-81
2023/12/28 05:15:10;;;;;;;3.75;1.85;;;;;;;;;;4806545;29;20134;-81
2023/12/28 05:17:36;;;;;;;1.42;0.60;;;;;;;;;;4802788;29;20114;-81
2023/12/28 05:20:02;;;;;;;1.98;1.25;;;;;;;;;;4807911;29;20133;-81
2023/12/28 05:22:28;;;;;;;2.45;1.05;;;;;;;;;;4807551;29;20027;-81
2023/12/28 05:24:54;;;;;;;4.40;1.42;;;;;;;;;;4805554;29;20051;-81
2023/12/28 05:27:20;;;;;;;4.20;1.52;;;;;;;;;;4806334;29;20394;-81
2023/12/28 05:29:46;;;;;;;5.50;1.73;;;;;;;;;;4802708;29;20059;-81
2023/12/28 05:32:12;;;;;;;3.47;1.70;;;;;;;;;;4821944;29;20076;-81
2023/12/28 05:34:38;;;;;;;2.10;0.85;;;;;;;;;;4790371;29;20450;-81
2023/12/28 05:37:05;;;;;;;1.75;0.95;;;;;;;;;;4806287;29;20134;-81
2023/12/28 05:39:30;;;;;;;0.93;0.55;;;;;;;;;;4806084;29;20356;-82
2023/12/28 05:41:56;;;;;;;5.05;1.42;;;;;;;;;;4820676;29;20051;-82
2023/12/28 05:44:22;;;;;;;5.07;1.85;;;;;;;;;;4789163;29;20043;-81
2023/12/28 05:46:48;;;;;;;7.22;1.27;;;;;;;;;;4788557;30;20082;-81
2023/12/28 05:49:14;;;;;;;1.95;1.33;;;;;;;;;;4792189;29;20043;-81
2023/12/28 05:51:41;;;;;;;4.32;1.55;;;;;;;;;;4777905;30;20043;-81
2023/12/28 05:54:07;;;;;;;1.58;0.70;;;;;;;;;;4799612;29;20047;-81
2023/12/28 05:56:33;;;;;;;1.63;0.90;;;;;;;;;;4806546;29;20154;-81
2023/12/28 05:58:59;;;;;;;3.70;1.40;;;;;;;;;;4790746;29;20047;-81
2023/12/28 06:01:26;;;;;;;6.63;1.65;;;;;;;;;;4786613;30;20052;-81
2023/12/28 06:03:52;;;;;;;4.65;1.40;;;;;;;;;;4801694;29;20470;-81
2023/12/28 06:06:18;;;;;;;3.33;1.92;;;;;;;;;;4807389;29;20446;-81
2023/12/28 06:08:44;;;;;;;5.18;1.50;;;;;;;;;;4805908;29;20787;-81
2023/12/28 06:11:10;;;;;;;4.20;1.50;;;;;;;;;;4805783;29;20386;-81
2023/12/28 06:13:36;;;;;;;2.30;1.35;;;;;;;;;;4805607;29;20081;-81
2023/12/28 06:16:02;;;;;;;0.80;0.50;;;;;;;;;;4805576;29;20474;-81
2023/12/28 06:18:28;;;;;;;5.80;1.52;;;;;;;;;;4805858;29;20081;-81
2023/12/28 06:20:55;;;;;;;3.35;1.38;;;;;;;;;;4805799;29;20070;-81
2023/12/28 06:23:21;;;;;;;5.25;1.77;;;;;;;;;;4765601;29;1225666;-81
2023/12/28 06:25:47;;;;;;;4.50;1.30;;;;;;;;;;4805510;29;20038;-81
2023/12/28 06:28:13;;;;;;;7.18;1.20;;;;;;;;;;4806564;29;20050;-81
2023/12/28 06:30:39;;;;;;;3.45;1.85;;;;;;;;;;4805962;29;20047;-81
2023/12/28 06:33:05;;;;;;;10.20;2.78;;;;;;;;;;4806706;29;20049;-81
2023/12/28 06:35:31;;;;;;;5.57;2.95;;;;;;;;;;4789816;29;20051;-80
2023/12/28 06:37:57;;;;;;;4.00;1.63;;;;;;;;;;4805857;29;20054;-80
2023/12/28 06:40:23;;;;;;;5.90;1.88;;;;;;;;;;4806036;29;20039;-80
2023/12/28 06:42:50;;;;;;;6.18;1.42;;;;;;;;;;4806678;29;20054;-80
2023/12/28 06:45:16;;;;;;;6.70;1.70;;;;;;;;;;4807100;29;20046;-80
2023/12/28 06:47:42;;;;;;;4.10;1.98;;;;;;;;;;4807047;29;20047;-80
2023/12/28 06:50:08;;;;;;;4.60;1.38;;;;;;;;;;4807144;29;20045;-80
2023/12/28 06:52:34;;;;;;;3.85;1.58;;;;;;;;;;4798667;29;20107;-80
2023/12/28 06:55:01;;;;;;;2.88;1.23;;;;;;;;;;4821157;29;20046;-80
2023/12/28 06:57:27;;;;;;;2.15;1.42;;;;;;;;;;4814359;29;20051;-80
2023/12/28 06:59:54;;;;;;;3.88;2.15;;;;;;;;;;4806362;29;20097;-80
2023/12/28 07:02:20;;;;;;;3.25;1.67;;;;;;;;;;4805799;29;20066;-80
2023/12/28 07:04:46;;;;;;;7.45;1.83;;;;;;;;;;4806394;29;20066;-80
2023/12/28 07:07:12;;;;;;;2.92;1.40;;;;;;;;;;4789753;29;20107;-79
2023/12/28 07:09:38;;;;;;;8.18;2.35;;;;;;;;;;4806482;29;20047;-80
2023/12/28 07:12:04;;;;;;;6.75;2.42;;;;;;;;;;4805832;29;20406;-80
2023/12/28 07:14:30;;;;;;;5.57;2.25;;;;;;;;;;4807561;29;20512;-80
2023/12/28 07:16:56;;;;;;;4.68;2.65;;;;;;;;;;4806124;29;20051;-80
2023/12/28 07:19:22;;;;;;;5.90;2.58;;;;;;;;;;4806145;29;20046;-80
2023/12/28 07:21:48;;;;;;;8.43;2.65;;;;;;;;;;4807953;29;20395;-80
2023/12/28 07:24:14;;;;;;;6.13;1.67;;;;;;;;;;4805970;29;20054;-80
2023/12/28 07:26:40;;;;;;;7.22;3.28;;;;;;;;;;4806050;29;20135;-80
2023/12/28 07:29:06;;;;;;;5.82;1.65;;;;;;;;;;4791103;29;20038;-81
2023/12/28 07:31:32;;;;;;;5.13;2.28;;;;;;;;;;4805620;29;20047;-80
2023/12/28 07:33:58;;;;;;;3.10;1.83;;;;;;;;;;4801036;29;20043;-80
2023/12/28 07:36:24;;;;;;;13.55;2.95;;;;;;;;;;4810401;29;20042;-81
2023/12/28 07:38:50;;;;;;;5.50;1.98;;;;;;;;;;4808433;29;20667;-79
2023/12/28 07:41:16;;;;;;;5.65;1.50;;;;;;;;;;4804704;29;20070;-79
2023/12/28 07:43:42;;;;;;;9.63;2.85;;;;;;;;;;4806668;29;20235;-79
2023/12/28 07:46:08;;;;;;;7.05;2.00;;;;;;;;;;4803416;29;20093;-80
2023/12/28 07:48:34;;;;;;;5.95;1.92;;;;;;;;;;4804720;29;20117;-79
2023/12/28 07:51:07;;;;;;;4.38;2.10;;;;;;;;;;4800681;29;20063;-80
2023/12/28 07:53:32;;;;;;;;;;;;;;;;;;4803922;29;20151;-79
2023/12/28 07:55:58;;;;;;;20.40;5.07;;;;;;;;;;4790824;29;20647;-80
2023/12/28 07:58:25;;;;;;;21.20;7.07;;;;;;;;;;4802262;29;20047;-79
2023/12/28 08:00:51;;;;;;;12.07;4.13;;;;;;;;;;4801236;29;20068;-79
2023/12/28 08:03:17;;;;;;;7.82;2.42;;;;;;;;;;4805096;29;20043;-80
2023/12/28 08:05:43;;;;;;;6.75;1.50;;;;;;;;;;4803740;29;20363;-79
2023/12/28 08:08:09;;;;;;;6.15;1.88;;;;;;;;;;4805023;29;20051;-79
2023/12/28 08:10:35;;;;;;;6.15;2.47;;;;;;;;;;4807498;29;20045;-79
2023/12/28 08:13:01;;;;;;;3.75;1.92;;;;;;;;;;4810638;29;20379;-79
2023/12/28 08:15:27;;;;;;;6.00;3.58;;;;;;;;;;4804860;29;20043;-78
2023/12/28 08:17:53;;;;;;;8.27;2.78;;;;;;;;;;4804350;29;20082;-78
2023/12/28 08:20:19;;;;;;;7.88;4.07;;;;;;;;;;4796124;29;20048;-79
2023/12/28 08:22:45;;;;;;;7.03;3.03;;;;;;;;;;4795747;29;20046;-78
2023/12/28 08:25:11;;;;;;;6.28;2.63;;;;;;;;;;4774084;30;20438;-80
2023/12/28 08:27:37;;;;;;;9.32;1.95;;;;;;;;;;4784844;30;20058;-80
2023/12/28 08:30:04;;;;;;;5.97;2.83;;;;;;;;;;4784904;30;20058;-79
2023/12/28 08:32:30;;;;;;;3.67;1.95;;;;;;;;;;4782745;30;20059;-79
2023/12/28 08:34:56;;;;;;;6.82;3.70;;;;;;;;;;4784990;30;20040;-79
2023/12/28 08:37:22;;;;;;;12.10;5.03;;;;;;;;;;4783993;30;20442;-79
2023/12/28 08:39:48;;;;;;;15.30;6.22;;;;;;;;;;4786407;30;20351;-79
2023/12/28 08:42:14;;;;;;;16.38;5.78;;;;;;;;;;4784097;30;20048;-79
2023/12/28 08:44:40;;;;;;;12.43;4.22;;;;;;;;;;4785331;30;20043;-79
2023/12/28 08:47:06;;;;;;;12.10;4.13;;;;;;;;;;4786085;29;20048;-79
2023/12/28 08:49:33;;;;;;;4.25;2.63;;;;;;;;;;4795042;29;20052;-78
2023/12/28 08:51:59;;;;;;;7.60;3.85;;;;;;;;;;4788518;29;20059;-79
2023/12/28 08:54:25;;;;;;;10.35;2.90;;;;;;;;;;4772672;30;20043;-78
2023/12/28 08:56:51;;;;;;;11.93;3.60;;;;;;;;;;4787935;30;20100;-78
2023/12/28 08:59:17;;;;;;;6.38;2.92;;;;;;;;;;4789271;30;20043;-78
2023/12/28 09:01:43;;;;;;;6.10;3.42;;;;;;;;;;4788469;30;20048;-79
2023/12/28 09:04:09;;;;;;;11.75;4.20;;;;;;;;;;4789012;30;20040;-78
2023/12/28 09:06:35;;;;;;;4.22;1.77;;;;;;;;;;4789257;30;20475;-78
2023/12/28 09:09:01;;;;;;;7.03;2.90;;;;;;;;;;4777393;30;20044;-78
2023/12/28 09:11:28;;;;;;;8.50;2.55;;;;;;;;;;4787656;30;20093;-78
2023/12/28 09:13:54;;;;;;;8.82;2.83;;;;;;;;;;4788888;30;20039;-78
2023/12/28 09:16:20;;;;;;;7.07;3.25;;;;;;;;;;4789008;30;20047;-78
2023/12/28 09:18:46;;;;;;;9.98;2.45;;;;;;;;;;4772849;30;20097;-78
2023/12/28 09:21:13;;;;;;;5.18;2.10;;;;;;;;;;4788882;30;20079;-78
2023/12/28 09:23:40;;;;;;;9.95;3.92;;;;;;;;;;4802126;29;20130;-78
2023/12/28 09:26:06;;;;;;;11.10;3.22;;;;;;;;;;4810874;29;20047;-79
2023/12/28 09:28:33;;;;;;;6.45;3.70;;;;;;;;;;4807585;29;20535;-79
2023/12/28 09:30:59;;;;;;;6.95;2.83;;;;;;;;;;4805917;29;20078;-78
2023/12/28 09:33:25;;;;;;;6.70;3.58;;;;;;;;;;4806155;29;20043;-78
2023/12/28 09:35:51;;;;;;;6.47;3.45;;;;;;;;;;4805069;29;20050;-78
2023/12/28 09:38:17;;;;;;;12.30;4.40;;;;;;;;;;4806093;29;20050;-78
2023/12/28 09:40:43;;;;;;;12.10;3.72;;;;;;;;;;4806269;29;20129;-79
2023/12/28 09:43:25;;;;;;;14.18;4.32;;;;;;;;;;4805953;29;20043;-78
2023/12/28 09:45:51;;;;;;;3.90;2.53;;;;;;;;;;4806375;29;20039;-78
2023/12/28 09:48:17;;;;;;;14.18;3.65;;;;;;;;;;4798614;29;20047;-78
2023/12/28 09:50:44;;;;;;;7.03;2.72;;;;;;;;;;4804772;29;20070;-78
2023/12/28 09:53:11;;;;;;;7.38;3.20;;;;;;;;;;4809174;29;20125;-78
2023/12/28 09:55:37;;;;;;;5.60;2.72;;;;;;;;;;4807544;29;20485;-78
2023/12/28 09:58:05;;;;;;;9.40;3.13;;;;;;;;;;4805320;29;20171;-79
2023/12/28 10:00:31;;;;;;;7.13;4.05;;;;;;;;;;4803672;29;20050;-78
2023/12/28 10:02:57;;;;;;;8.75;3.63;;;;;;;;;;4809400;29;20054;-79
2023/12/28 10:05:23;;;;;;;6.65;3.47;;;;;;;;;;4799016;29;20376;-79
2023/12/28 10:07:50;;;;;;;10.10;3.50;;;;;;;;;;4801961;29;20051;-79
2023/12/28 10:10:17;;;;;;;8.57;4.10;;;;;;;;;;4806173;29;20051;-79
2023/12/28 10:12:43;;;;;;;7.28;4.70;;;;;;;;;;4810877;29;20051;-79
2023/12/28 10:15:09;;;;;;;5.57;4.05;;;;;;;;;;4804409;29;20043;-79
2023/12/28 10:17:36;;;;;;;7.65;3.67;;;;;;;;;;4805078;29;20053;-79
2023/12/28 10:20:04;;;;;;;7.25;3.85;;;;;;;;;;4804180;29;20118;-79
2023/12/28 10:22:31;;;;;;;12.18;4.00;;;;;;;;;;4804347;29;20043;-79
2023/12/28 10:24:57;;;;;;;8.75;3.28;;;;;;;;;;4786779;29;20048;-79
2023/12/28 10:27:23;;;;;;;12.77;3.80;;;;;;;;;;4786907;30;20125;-79
2023/12/28 10:29:50;;;;;;;6.75;2.63;;;;;;;;;;4782287;30;20058;-79
2023/12/28 10:32:15;;;;;;;10.15;3.00;;;;;;;;;;4769388;30;20093;-79
2023/12/28 10:34:41;;;;;;;3.72;2.65;;;;;;;;;;4786118;30;20059;-78
2023/12/28 10:37:08;;;;;;;10.23;2.85;;;;;;;;;;4786273;30;20486;-79
2023/12/28 10:39:34;;;;;;;12.05;2.72;;;;;;;;;;4793311;29;20050;-79
2023/12/28 10:42:03;;;;;;;8.52;3.45;;;;;;;;;;4786415;30;20092;-79
2023/12/28 10:44:31;;;;;;;5.63;2.53;;;;;;;;;;4787409;29;20042;-79
2023/12/28 10:46:58;;;;;;;8.02;4.05;;;;;;;;;;4783782;30;20054;-79
2023/12/28 10:49:26;;;;;;;7.38;3.45;;;;;;;;;;4777898;30;20101;-79
2023/12/28 10:51:55;;;;;;;3.33;2.08;;;;;;;;;;4786260;30;20544;-79
2023/12/28 10:54:28;;;;;;;3.15;2.03;;;;;;;;;;4769626;30;20418;-79
2023/12/28 10:57:03;;;;;;;5.32;2.78;;;;;;;;;;4785613;30;20055;-79
2023/12/28 10:59:38;;;;;;;9.93;2.92;;;;;;;;;;4785925;30;20040;-79
2023/12/28 11:02:04;;;;;;;7.40;4.20;;;;;;;;;;4786068;30;20046;-79
2023/12/28 11:04:36;;;;;;;12.57;4.88;;;;;;;;;;4785902;29;20031;-79
2023/12/28 11:07:02;;;;;;;6.43;4.07;;;;;;;;;;4794933;29;20111;-79
2023/12/28 11:09:31;;;;;;;9.27;4.15;;;;;;;;;;4786060;30;20039;-79
2023/12/28 11:12:00;;;;;;;7.05;4.28;;;;;;;;;;4785561;29;20078;-79
2023/12/28 11:14:28;;;;;;;7.88;3.63;;;;;;;;;;4785606;30;20040;-79
2023/12/28 11:16:54;;;;;;;5.80;3.63;;;;;;;;;;4790748;29;20080;-79
2023/12/28 11:19:21;;;;;;;7.75;2.72;;;;;;;;;;4788876;29;20043;-79
2023/12/28 11:21:48;;;;;;;9.23;5.40;;;;;;;;;;4786501;29;20051;-79
2023/12/28 11:24:14;;;;;;;6.47;3.22;;;;;;;;;;4798839;29;20070;-79
2023/12/28 11:26:40;;;;;;;4.28;2.38;;;;;;;;;;4808089;29;20047;-80
2023/12/28 11:29:06;;;;;;;12.73;4.57;;;;;;;;;;4804287;29;20045;-79
2023/12/28 11:31:36;;;;;;;6.25;3.40;;;;;;;;;;4803577;29;20085;-79
2023/12/28 11:34:02;;;;;;;5.25;1.88;;;;;;;;;;4804341;29;20540;-79
2023/12/28 11:36:40;;;;;;;6.30;3.85;;;;;;;;;;4803813;29;20092;-79
2023/12/28 11:39:07;;;;;;;10.07;3.45;;;;;;;;;;4813900;29;20043;-79
2023/12/28 11:41:33;;;;;;;8.13;3.13;;;;;;;;;;4799602;29;20047;-79
2023/12/28 11:44:06;;;;;;;4.72;3.00;;;;;;;;;;4810379;29;20510;-79
2023/12/28 11:46:33;;;;;;;8.77;4.30;;;;;;;;;;4811180;29;20049;-79
2023/12/28 11:49:08;;;;;;;8.02;2.92;;;;;;;;;;4803871;29;20046;-79
2023/12/28 11:51:39;;;;;;;4.90;2.75;;;;;;;;;;4803776;29;20047;-79
2023/12/28 11:54:05;;;;;;;12.73;4.13;;;;;;;;;;4803645;29;20054;-80
2023/12/28 11:56:32;;;;;;;8.60;4.00;;;;;;;;;;4803125;29;20086;-79
2023/12/28 11:58:58;;;;;;;7.28;3.90;;;;;;;;;;4800666;29;20474;-79
2023/12/28 12:01:24;;;;;;;7.15;3.38;;;;;;;;;;4813422;29;20046;-80
2023/12/28 12:03:50;;;;;;;7.00;3.58;;;;;;;;;;4801923;29;20054;-79
2023/12/28 12:06:16;;;;;;;6.10;1.77;;;;;;;;;;4806739;29;20066;-79
2023/12/28 12:08:46;;;;;;;8.90;3.00;;;;;;;;;;4803437;29;20210;-80
2023/12/28 12:11:13;;;;;;;7.45;2.63;;;;;;;;;;4803868;29;20039;-79
2023/12/28 12:13:40;;;;;;;5.53;1.60;;;;;;;;;;4806721;29;20047;-79
2023/12/28 12:16:06;;;;;;;3.78;2.10;;;;;;;;;;4804413;29;20046;-79
2023/12/28 12:18:33;;;;;;;1.88;1.23;;;;;;;;;;4803429;29;20088;-79
2023/12/28 12:20:59;;;;;;;2.17;1.30;;;;;;;;;;4803792;29;20484;-79
2023/12/28 12:23:25;;;;;;;4.72;2.10;;;;;;;;;;4809652;29;20498;-79
2023/12/28 12:25:52;;;;;;;12.00;3.35;;;;;;;;;;4795986;29;20482;-79
2023/12/28 12:28:18;;;;;;;6.88;2.33;;;;;;;;;;4812767;29;20051;-79
2023/12/28 12:30:55;;;;;;;3.92;2.38;;;;;;;;;;4808448;29;20092;-79
2023/12/28 12:33:22;;;;;;;5.60;2.85;;;;;;;;;;4798955;29;20077;-80
2023/12/28 12:35:48;;;;;;;3.78;2.05;;;;;;;;;;4800226;29;20785;-79
2023/12/28 12:38:14;;;;;;;3.75;2.22;;;;;;;;;;4796878;29;20055;-79
2023/12/28 12:40:40;;;;;;;3.30;1.88;;;;;;;;;;4809738;29;20129;-79
2023/12/28 12:43:08;;;;;;;7.80;2.13;;;;;;;;;;4806074;29;20039;-79
2023/12/28 12:45:35;;;;;;;4.30;3.30;;;;;;;;;;4807257;29;20394;-80
2023/12/28 12:48:03;;;;;;;7.13;3.05;;;;;;;;;;4800629;29;20103;-80
2023/12/28 12:50:29;;;;;;;5.95;2.78;;;;;;;;;;4803739;29;20092;-78
2023/12/28 12:52:55;;;;;;;7.68;4.78;;;;;;;;;;4788106;29;20046;-79
2023/12/28 12:55:21;;;;;;;14.02;4.80;;;;;;;;;;4803851;29;20053;-81
2023/12/28 12:57:47;;;;;;;11.75;5.63;;;;;;;;;;4791953;29;20077;-80
2023/12/28 13:00:14;;;;;;;5.97;3.35;;;;;;;;;;4805144;29;20099;-79
2023/12/28 13:02:40;;;;;;;13.50;5.25;;;;;;;;;;4806244;29;20047;-80
2023/12/28 13:05:06;;;;;;;10.82;3.15;;;;;;;;;;4804656;29;20075;-79
2023/12/28 13:07:32;;;;;;;5.35;2.63;;;;;;;;;;4806476;29;20046;-80
2023/12/28 13:09:58;;;;;;;3.53;2.03;;;;;;;;;;4789105;29;20493;-79
2023/12/28 13:12:25;;;;;;;6.50;2.25;;;;;;;;;;4806086;29;20057;-82
2023/12/28 13:14:51;;;;;;;4.97;2.28;;;;;;;;;;4790446;29;20050;-82
2023/12/28 13:17:17;;;;;;;6.65;1.88;;;;;;;;;;4790640;29;20498;-82
2023/12/28 13:19:43;;;;;;;6.13;2.10;;;;;;;;;;4789818;29;20055;-82
2023/12/28 13:22:09;;;;;;;10.02;2.45;;;;;;;;;;4788776;29;20047;-79
2023/12/28 13:24:35;;;;;;;5.32;2.60;;;;;;;;;;4804037;29;20448;-78
2023/12/28 13:27:01;;;;;;;7.38;2.58;;;;;;;;;;4803420;29;20072;-78
2023/12/28 13:29:27;;;;;;;4.47;1.75;;;;;;;;;;4790856;29;20046;-78
2023/12/28 13:31:53;;;;;;;4.35;2.47;;;;;;;;;;4786204;29;20120;-79
2023/12/28 13:34:19;;;;;;;5.53;2.25;;;;;;;;;;4804967;29;20062;-80
2023/12/28 13:36:45;;;;;;;23.80;3.92;;;;;;;;;;4789604;29;20402;-79
2023/12/28 13:39:14;;;;;;;4.20;2.65;;;;;;;;;;4812629;29;20050;-80
2023/12/28 13:41:40;;;;;;;5.38;3.40;;;;;;;;;;4789825;29;20047;-79
2023/12/28 13:44:10;;;;;;;4.07;2.78;;;;;;;;;;4805075;29;20119;-80
2023/12/28 13:46:36;;;;;;;6.75;3.35;;;;;;;;;;4804930;29;20047;-80
2023/12/28 13:49:04;;;;;;;3.70;2.25;;;;;;;;;;4788326;29;20046;-79
2023/12/28 13:51:33;;;;;;;6.35;3.63;;;;;;;;;;4795396;29;20043;-80
2023/12/28 13:53:59;;;;;;;9.95;3.15;;;;;;;;;;4814483;29;20496;-81
2023/12/28 13:56:25;;;;;;;6.30;2.30;;;;;;;;;;4804876;29;20043;-80
2023/12/28 13:58:51;;;;;;;5.55;2.75;;;;;;;;;;4804049;29;20043;-79
2023/12/28 14:01:17;;;;;;;7.70;3.58;;;;;;;;;;4804604;29;20118;-80
2023/12/28 14:03:45;;;;;;;4.50;2.95;;;;;;;;;;4805900;29;20047;-80
2023/12/28 14:06:11;;;;;;;4.28;2.72;;;;;;;;;;4806224;29;20465;-80
2023/12/28 14:08:37;;;;;;;4.28;1.90;;;;;;;;;;4803692;29;20082;-80
2023/12/28 14:11:03;;;;;;;16.27;2.53;;;;;;;;;;4806018;29;20081;-80
2023/12/28 14:13:30;;;;;;;7.40;2.00;;;;;;;;;;4794822;29;20053;-80
2023/12/28 14:15:57;;;;;;;4.68;2.10;;;;;;;;;;4789653;29;20043;-80
2023/12/28 14:18:23;;;;;;;4.10;1.88;;;;;;;;;;4790015;29;20141;-79
2023/12/28 14:20:49;;;;;;;7.85;3.85;;;;;;;;;;4787811;29;20073;-80
2023/12/28 14:23:15;;;;;;;5.90;2.22;;;;;;;;;;4799513;29;20083;-79
2023/12/28 14:25:41;;;;;;;7.55;2.30;;;;;;;;;;4803201;29;20406;-80
2023/12/28 14:28:08;;;;;;;8.13;3.53;;;;;;;;;;4804745;29;20047;-80
2023/12/28 14:30:34;;;;;;;4.57;1.70;;;;;;;;;;4810308;29;20050;-79
2023/12/28 14:33:00;;;;;;;9.38;3.35;;;;;;;;;;4804653;29;20050;-80
2023/12/28 14:35:26;;;;;;;6.00;2.55;;;;;;;;;;4805063;29;20050;-80
2023/12/28 14:37:52;;;;;;;12.52;1.83;;;;;;;;;;4794881;29;20162;-80